createdAt,value
2023-05-16T00:01:01.416Z,51.50
2023-05-16T00:03:28.249Z,51.60
2023-05-16T00:05:55.992Z,51.80
2023-05-16T00:08:22.981Z,51.90
2023-05-16T00:10:49.573Z,51.90
2023-05-16T00:13:16.310Z,52.40
2023-05-16T00:15:43.957Z,52.00
2023-05-16T00:18:14.756Z,52.10
2023-05-16T00:20:42.082Z,52.90
2023-05-16T00:23:08.672Z,52.50
2023-05-16T00:25:36.470Z,52.70
2023-05-16T00:28:03.116Z,52.80
2023-05-16T00:30:29.671Z,53.80
2023-05-16T00:32:56.589Z,53.90
2023-05-16T00:35:23.369Z,54.10
2023-05-16T00:37:50.504Z,53.90
2023-05-16T00:40:17.201Z,54.30
2023-05-16T00:42:44.459Z,54.40
2023-05-16T00:45:11.278Z,54.20
2023-05-16T00:47:37.883Z,54.30
2023-05-16T00:50:05.697Z,54.60
2023-05-16T00:52:33.617Z,54.70
2023-05-16T00:55:00.417Z,54.80
2023-05-16T00:57:27.347Z,54.90
2023-05-16T00:59:54.560Z,54.70
2023-05-16T01:02:21.547Z,55.00
2023-05-16T01:04:48.564Z,55.00
2023-05-16T01:07:15.411Z,55.00
2023-05-16T01:09:41.970Z,55.00
2023-05-16T01:12:34.667Z,55.10
2023-05-16T01:15:05.082Z,55.00
2023-05-16T01:17:34.519Z,55.00
2023-05-16T01:20:08.229Z,54.80
2023-05-16T01:22:38.639Z,54.70
2023-05-16T01:25:07.818Z,54.90
2023-05-16T01:27:35.782Z,54.80
2023-05-16T01:30:11.099Z,54.70
2023-05-16T01:32:37.784Z,54.80
2023-05-16T01:35:04.892Z,54.80
2023-05-16T01:37:42.947Z,54.90
2023-05-16T01:40:12.799Z,54.50
2023-05-16T01:42:42.047Z,54.20
2023-05-16T01:45:12.952Z,54.00
2023-05-16T01:47:41.376Z,54.40
2023-05-16T01:50:09.999Z,54.40
2023-05-16T01:52:40.677Z,54.40
2023-05-16T01:55:10.638Z,54.50
2023-05-16T01:57:38.983Z,54.40
2023-05-16T02:00:05.855Z,54.40
2023-05-16T02:02:32.554Z,54.20
2023-05-16T02:04:59.412Z,54.20
2023-05-16T02:07:26.358Z,54.10
2023-05-16T02:09:52.926Z,54.00
2023-05-16T02:12:19.463Z,54.00
2023-05-16T02:14:46.101Z,53.90
2023-05-16T02:17:12.725Z,53.70
2023-05-16T02:19:39.447Z,53.70
2023-05-16T02:22:06.212Z,53.60
2023-05-16T02:24:32.827Z,53.50
2023-05-16T02:26:59.775Z,53.60
2023-05-16T02:29:26.369Z,53.50
2023-05-16T02:31:52.986Z,53.50
2023-05-16T02:34:19.885Z,53.40
2023-05-16T02:36:46.530Z,53.30
2023-05-16T02:39:13.157Z,53.40
2023-05-16T02:41:39.732Z,53.20
2023-05-16T02:44:06.333Z,53.10
2023-05-16T02:46:36.607Z,53.10
2023-05-16T02:49:03.698Z,53.00
2023-05-16T02:51:30.264Z,53.00
2023-05-16T02:53:57.240Z,52.90
2023-05-16T02:56:23.931Z,52.80
2023-05-16T02:58:50.570Z,52.70
2023-05-16T03:01:17.410Z,52.70
2023-05-16T03:03:44.218Z,52.60
2023-05-16T03:06:10.977Z,52.60
2023-05-16T03:08:37.670Z,52.50
2023-05-16T03:11:04.233Z,52.50
2023-05-16T03:13:30.920Z,52.40
2023-05-16T03:15:57.681Z,52.30
2023-05-16T03:18:24.362Z,52.20
2023-05-16T03:20:53.000Z,52.20
2023-05-16T03:23:20.259Z,52.20
2023-05-16T03:25:47.121Z,52.30
2023-05-16T03:28:15.236Z,52.10
2023-05-16T03:30:42.309Z,52.00
2023-05-16T03:33:09.215Z,52.00
2023-05-16T03:35:36.215Z,52.00
2023-05-16T03:38:03.093Z,52.00
2023-05-16T03:40:29.652Z,51.80
2023-05-16T03:42:56.397Z,51.80
2023-05-16T03:45:23.058Z,51.90
2023-05-16T03:47:49.740Z,51.70
2023-05-16T03:50:16.562Z,52.00
2023-05-16T03:52:43.910Z,52.00
2023-05-16T03:55:10.606Z,51.80
2023-05-16T03:57:38.220Z,51.70
2023-05-16T04:00:08.051Z,51.70
2023-05-16T04:02:34.738Z,51.70
2023-05-16T04:05:01.361Z,51.60
2023-05-16T04:07:28.301Z,51.50
2023-05-16T04:09:55.883Z,51.50
2023-05-16T04:12:23.122Z,51.50
2023-05-16T04:14:49.739Z,51.40
2023-05-16T04:17:16.400Z,51.40
2023-05-16T04:19:43.088Z,51.40
2023-05-16T04:22:09.677Z,51.40
2023-05-16T04:24:36.580Z,51.50
2023-05-16T04:27:04.784Z,51.70
2023-05-16T04:29:32.285Z,51.50
2023-05-16T04:31:58.890Z,51.50
2023-05-16T04:34:27.980Z,51.40
2023-05-16T04:36:55.569Z,51.50
2023-05-16T04:39:22.366Z,51.30
2023-05-16T04:41:48.936Z,51.20
2023-05-16T04:44:15.845Z,51.50
2023-05-16T04:46:42.837Z,51.50
2023-05-16T04:49:11.236Z,51.40
2023-05-16T04:51:37.792Z,51.40
2023-05-16T04:54:04.502Z,51.30
2023-05-16T04:56:31.076Z,51.40
2023-05-16T04:58:58.068Z,51.40
2023-05-16T05:01:24.716Z,51.40
2023-05-16T05:03:51.328Z,51.30
2023-05-16T05:06:17.974Z,51.30
2023-05-16T05:08:44.563Z,51.40
2023-05-16T05:11:11.812Z,51.40
2023-05-16T05:13:38.460Z,51.20
2023-05-16T05:16:05.917Z,51.20
2023-05-16T05:18:33.038Z,51.10
2023-05-16T05:20:59.686Z,51.20
2023-05-16T05:23:26.429Z,51.30
2023-05-16T05:25:53.193Z,51.20
2023-05-16T05:28:20.002Z,51.20
2023-05-16T05:30:48.343Z,51.30
2023-05-16T05:33:17.110Z,51.30
2023-05-16T05:35:43.799Z,51.20
2023-05-16T05:38:10.348Z,51.00
2023-05-16T05:40:37.270Z,51.20
2023-05-16T05:43:03.888Z,51.10
2023-05-16T05:45:30.607Z,51.00
2023-05-16T05:47:57.546Z,51.20
2023-05-16T05:50:24.243Z,51.10
2023-05-16T05:52:50.900Z,51.10
2023-05-16T05:55:17.524Z,51.10
2023-05-16T05:57:44.104Z,51.10
2023-05-16T06:00:11.541Z,51.10
2023-05-16T06:02:38.114Z,51.10
2023-05-16T06:05:05.021Z,51.10
2023-05-16T06:07:31.605Z,51.10
2023-05-16T06:09:58.161Z,51.00
2023-05-16T06:12:24.746Z,51.10
2023-05-16T06:14:51.297Z,51.10
2023-05-16T06:17:18.115Z,51.10
2023-05-16T06:19:45.211Z,51.00
2023-05-16T06:22:11.781Z,50.80
2023-05-16T06:24:38.387Z,50.90
2023-05-16T06:27:05.021Z,50.90
2023-05-16T06:29:31.695Z,50.90
2023-05-16T06:31:58.365Z,50.90
2023-05-16T06:34:28.162Z,50.80
2023-05-16T06:36:55.414Z,50.80
2023-05-16T06:39:22.070Z,50.70
2023-05-16T06:41:48.934Z,50.80
2023-05-16T06:44:15.671Z,50.80
2023-05-16T06:46:42.342Z,50.70
2023-05-16T06:49:08.967Z,50.50
2023-05-16T06:51:35.677Z,50.60
2023-05-16T06:54:04.160Z,50.60
2023-05-16T06:56:31.574Z,50.60
2023-05-16T06:58:58.297Z,50.50
2023-05-16T07:01:25.029Z,50.40
2023-05-16T07:03:52.297Z,50.20
2023-05-16T07:06:19.178Z,49.70
2023-05-16T07:08:46.159Z,49.60
2023-05-16T07:11:12.899Z,49.50
2023-05-16T07:13:39.454Z,49.00
2023-05-16T07:16:07.742Z,48.90
2023-05-16T07:18:34.635Z,48.70
2023-05-16T07:21:01.243Z,48.90
2023-05-16T07:23:27.905Z,49.10
2023-05-16T07:25:54.643Z,49.00
2023-05-16T07:28:22.091Z,49.00
2023-05-16T07:30:48.792Z,48.90
2023-05-16T07:33:15.477Z,48.60
2023-05-16T07:35:42.557Z,48.80
2023-05-16T07:38:09.166Z,48.50
2023-05-16T07:40:35.838Z,48.00
2023-05-16T07:43:02.988Z,47.80
2023-05-16T07:45:30.004Z,47.60
2023-05-16T07:47:57.102Z,47.70
2023-05-16T07:50:23.847Z,47.70
2023-05-16T07:52:50.680Z,47.70
2023-05-16T07:55:17.342Z,47.30
2023-05-16T07:57:44.032Z,47.20
2023-05-16T08:00:10.965Z,47.50
2023-05-16T08:02:37.783Z,47.60
2023-05-16T08:05:04.695Z,47.40
2023-05-16T08:07:31.647Z,47.30
2023-05-16T08:09:58.245Z,47.30
2023-05-16T08:12:25.036Z,47.30
2023-05-16T08:14:51.823Z,47.40
2023-05-16T08:17:18.443Z,47.50
2023-05-16T08:19:45.126Z,47.30
2023-05-16T08:22:11.738Z,47.20
2023-05-16T08:24:38.389Z,47.20
2023-05-16T08:27:05.226Z,47.20
2023-05-16T08:29:32.063Z,47.20
2023-05-16T08:31:58.819Z,47.10
2023-05-16T08:34:25.854Z,47.00
2023-05-16T08:36:52.594Z,47.00
2023-05-16T08:39:19.176Z,47.00
2023-05-16T08:41:45.893Z,47.00
2023-05-16T08:44:13.166Z,47.00
2023-05-16T08:46:44.224Z,47.10
2023-05-16T08:49:11.700Z,46.70
2023-05-16T08:51:38.421Z,46.20
2023-05-16T08:54:10.399Z,46.20
2023-05-16T08:56:37.921Z,46.40
2023-05-16T08:59:05.119Z,46.40
2023-05-16T09:01:34.627Z,46.20
2023-05-16T09:04:01.699Z,46.00
2023-05-16T09:06:28.757Z,46.00
2023-05-16T09:08:55.522Z,45.50
2023-05-16T09:11:22.311Z,45.50
2023-05-16T09:13:49.209Z,45.60
2023-05-16T09:16:16.811Z,45.70
2023-05-16T09:18:44.872Z,45.70
2023-05-16T09:21:12.516Z,46.00
2023-05-16T09:23:39.402Z,46.00
2023-05-16T09:26:08.018Z,46.10
2023-05-16T09:28:37.178Z,46.10
2023-05-16T09:31:03.910Z,46.20
2023-05-16T09:33:30.711Z,46.40
2023-05-16T09:35:58.266Z,46.00
2023-05-16T09:38:26.468Z,46.20
2023-05-16T09:40:53.626Z,46.40
2023-05-16T09:43:22.986Z,46.20
2023-05-16T09:45:49.664Z,46.30
2023-05-16T09:48:18.935Z,46.30
2023-05-16T09:50:52.461Z,46.30
2023-05-16T09:53:26.621Z,46.40
2023-05-16T09:56:06.916Z,46.30
2023-05-16T09:58:37.684Z,45.90
2023-05-16T10:01:06.410Z,45.40
2023-05-16T10:03:34.695Z,45.60
2023-05-16T10:06:01.701Z,45.40
2023-05-16T10:08:28.426Z,45.20
2023-05-16T10:10:55.788Z,45.10
2023-05-16T10:13:29.040Z,45.00
2023-05-16T10:15:56.456Z,45.20
2023-05-16T10:18:24.513Z,45.20
2023-05-16T10:20:53.710Z,44.80
2023-05-16T10:23:21.197Z,44.10
2023-05-16T10:25:49.028Z,44.10
2023-05-16T10:28:16.419Z,44.00
2023-05-16T10:30:44.358Z,43.90
2023-05-16T10:33:12.793Z,44.00
2023-05-16T10:35:39.817Z,43.80
2023-05-16T10:38:08.266Z,44.10
2023-05-16T10:40:35.811Z,44.00
2023-05-16T10:43:03.924Z,44.00
2023-05-16T10:45:31.279Z,44.30
2023-05-16T10:47:59.154Z,44.20
2023-05-16T10:50:32.327Z,44.40
2023-05-16T10:53:11.569Z,44.40
2023-05-16T10:55:44.922Z,44.50
2023-05-16T10:58:11.709Z,44.50
2023-05-16T11:00:39.446Z,44.30
2023-05-16T11:03:06.553Z,44.10
2023-05-16T11:05:33.515Z,44.10
2023-05-16T11:08:05.148Z,44.10
2023-05-16T11:10:32.293Z,43.90
2023-05-16T11:13:08.206Z,43.90
2023-05-16T11:15:34.872Z,44.10
2023-05-16T11:18:06.569Z,44.30
2023-05-16T11:20:35.348Z,44.10
2023-05-16T11:23:17.074Z,44.20
2023-05-16T11:25:47.139Z,44.50
2023-05-16T11:28:14.501Z,44.70
2023-05-16T11:30:44.698Z,44.30
2023-05-16T11:33:13.001Z,44.00
2023-05-16T11:35:39.779Z,43.90
2023-05-16T11:38:06.368Z,43.50
2023-05-16T11:40:33.082Z,43.70
2023-05-16T11:43:00.418Z,43.70
2023-05-16T11:45:27.450Z,44.10
2023-05-16T11:47:54.466Z,44.20
2023-05-16T11:50:23.501Z,44.30
2023-05-16T11:52:57.345Z,44.30
2023-05-16T11:55:40.278Z,44.30
2023-05-16T11:58:08.382Z,44.50
2023-05-16T12:00:35.166Z,44.50
2023-05-16T12:03:06.186Z,44.60
2023-05-16T12:05:34.700Z,44.60
2023-05-16T12:08:02.803Z,44.70
2023-05-16T12:10:31.160Z,44.70
2023-05-16T12:12:57.852Z,44.70
2023-05-16T12:15:24.503Z,44.60
2023-05-16T12:17:52.626Z,44.70
2023-05-16T12:20:19.422Z,44.70
2023-05-16T12:22:46.581Z,44.60
2023-05-16T12:25:26.743Z,44.70
2023-05-16T12:27:54.886Z,44.70
2023-05-16T12:30:22.337Z,44.80
2023-05-16T12:33:11.014Z,44.80
2023-05-16T12:35:38.702Z,44.90
2023-05-16T12:38:05.989Z,44.90
2023-05-16T12:40:32.727Z,44.80
2023-05-16T12:42:59.472Z,44.70
2023-05-16T12:45:29.051Z,44.60
2023-05-16T12:47:55.929Z,44.60
2023-05-16T12:50:23.004Z,44.60
2023-05-16T12:52:54.008Z,44.20
2023-05-16T12:55:21.805Z,44.10
2023-05-16T12:57:49.109Z,44.00
2023-05-16T13:00:18.736Z,43.80
2023-05-16T13:02:46.336Z,44.10
2023-05-16T13:05:13.286Z,43.80
2023-05-16T13:07:43.186Z,43.80
2023-05-16T13:10:10.861Z,43.90
2023-05-16T13:12:38.365Z,43.90
2023-05-16T13:15:07.398Z,43.90
2023-05-16T13:17:46.254Z,43.90
2023-05-16T13:20:14.939Z,44.10
2023-05-16T13:22:42.519Z,43.90
2023-05-16T13:25:10.508Z,43.30
2023-05-16T13:27:37.162Z,43.60
2023-05-16T13:30:07.385Z,43.50
2023-05-16T13:32:34.191Z,43.60
2023-05-16T13:35:00.930Z,43.90
2023-05-16T13:37:27.597Z,44.00
2023-05-16T13:39:57.081Z,44.20
2023-05-16T13:42:26.600Z,44.20
2023-05-16T13:44:53.230Z,44.50
2023-05-16T13:47:19.920Z,44.20
2023-05-16T13:49:47.454Z,44.30
2023-05-16T13:52:14.760Z,44.50
2023-05-16T13:54:41.511Z,44.60
2023-05-16T13:57:08.208Z,44.70
2023-05-16T14:02:04.560Z,44.90
2023-05-16T14:04:31.172Z,45.00
2023-05-16T14:06:58.165Z,44.70
2023-05-16T14:09:24.840Z,44.50
2023-05-16T14:11:51.732Z,44.50
2023-05-16T14:14:18.349Z,44.80
2023-05-16T14:16:45.678Z,44.90
2023-05-16T14:19:13.360Z,44.70
2023-05-16T14:21:40.493Z,44.50
2023-05-16T14:24:07.423Z,44.70
2023-05-16T14:26:33.976Z,44.60
2023-05-16T14:29:00.756Z,44.50
2023-05-16T14:31:27.469Z,44.70
2023-05-16T14:33:54.096Z,44.80
2023-05-16T14:36:20.789Z,44.60
2023-05-16T14:38:49.091Z,44.50
2023-05-16T14:41:16.302Z,44.40
2023-05-16T14:43:44.452Z,44.70
2023-05-16T14:46:11.535Z,44.60
2023-05-16T14:48:38.144Z,44.40
2023-05-16T14:51:05.198Z,44.50
2023-05-16T14:53:31.896Z,44.10
2023-05-16T14:55:58.690Z,43.60
2023-05-16T14:58:25.303Z,43.80
2023-05-16T15:00:51.990Z,43.90
2023-05-16T15:03:19.058Z,43.90
2023-05-16T15:05:45.937Z,44.10
2023-05-16T15:08:12.570Z,44.50
2023-05-16T15:10:39.369Z,44.40
2023-05-16T15:13:05.988Z,44.30
2023-05-16T15:15:33.229Z,44.10
2023-05-16T15:17:59.993Z,44.20
2023-05-16T15:20:27.030Z,43.90
2023-05-16T15:22:53.751Z,43.90
2023-05-16T15:25:20.718Z,44.00
2023-05-16T15:27:47.581Z,43.70
2023-05-16T15:30:14.802Z,43.80
2023-05-16T15:32:41.581Z,43.70
2023-05-16T15:35:08.442Z,43.70
2023-05-16T15:37:35.155Z,43.80
2023-05-16T15:40:02.022Z,44.10
2023-05-16T15:42:28.634Z,44.10
2023-05-16T15:44:55.470Z,44.10
2023-05-16T15:47:22.148Z,44.20
2023-05-16T15:49:48.783Z,43.90
2023-05-16T15:52:15.523Z,43.90
2023-05-16T15:54:42.137Z,43.80
2023-05-16T15:57:08.784Z,43.80
2023-05-16T15:59:35.448Z,43.90
2023-05-16T16:02:05.347Z,44.00
2023-05-16T16:04:32.074Z,43.90
2023-05-16T16:06:59.058Z,44.10
2023-05-16T16:09:25.702Z,44.30
2023-05-16T16:11:56.219Z,44.40
2023-05-16T16:14:24.046Z,44.20
2023-05-16T16:16:51.035Z,44.20
2023-05-16T16:19:17.983Z,44.40
2023-05-16T16:21:44.779Z,44.40
2023-05-16T16:24:11.722Z,44.40
2023-05-16T16:26:38.425Z,44.50
2023-05-16T16:29:06.521Z,44.50
2023-05-16T16:31:33.510Z,44.60
2023-05-16T16:34:00.402Z,44.70
2023-05-16T16:36:27.067Z,44.60
2023-05-16T16:38:53.687Z,44.90
2023-05-16T16:41:20.742Z,44.80
2023-05-16T16:43:47.415Z,45.00
2023-05-16T16:46:14.061Z,45.00
2023-05-16T16:48:40.749Z,45.10
2023-05-16T16:51:07.430Z,45.10
2023-05-16T16:53:35.243Z,45.00
2023-05-16T16:56:01.951Z,45.10
2023-05-16T16:58:28.654Z,45.10
2023-05-16T17:00:55.393Z,45.20
2023-05-16T17:03:22.252Z,45.10
2023-05-16T17:05:49.053Z,45.00
2023-05-16T17:08:15.684Z,45.30
2023-05-16T17:10:42.366Z,45.20
2023-05-16T17:13:10.509Z,45.30
2023-05-16T17:15:37.655Z,45.50
2023-05-16T17:18:07.232Z,45.60
2023-05-16T17:20:34.482Z,45.50
2023-05-16T17:23:01.616Z,45.40
2023-05-16T17:25:29.216Z,45.40
2023-05-16T17:27:56.318Z,45.50
2023-05-16T17:30:23.475Z,45.60
2023-05-16T17:32:50.230Z,45.70
2023-05-16T17:35:17.136Z,45.70
2023-05-16T17:37:43.733Z,45.70
2023-05-16T17:40:16.251Z,45.70
2023-05-16T17:42:43.571Z,45.80
2023-05-16T17:45:11.223Z,45.80
2023-05-16T17:47:37.916Z,45.70
2023-05-16T17:50:05.577Z,45.80
2023-05-16T17:52:33.950Z,45.80
2023-05-16T17:55:00.780Z,45.80
2023-05-16T17:57:27.958Z,45.90
2023-05-16T17:59:54.583Z,45.80
2023-05-16T18:02:21.198Z,45.80
2023-05-16T18:04:48.280Z,45.80
2023-05-16T18:07:14.901Z,45.90
2023-05-16T18:09:41.621Z,45.90
2023-05-16T18:12:09.361Z,45.90
2023-05-16T18:14:35.919Z,45.90
2023-05-16T18:17:02.502Z,45.90
2023-05-16T18:19:30.476Z,45.90
2023-05-16T18:21:58.422Z,45.90
2023-05-16T18:24:25.037Z,45.90
2023-05-16T18:26:51.845Z,46.00
2023-05-16T18:29:18.486Z,45.90
2023-05-16T18:31:45.116Z,45.90
2023-05-16T18:34:12.053Z,45.90
2023-05-16T18:36:38.657Z,45.90
2023-05-16T18:39:05.886Z,45.90
2023-05-16T18:41:32.521Z,46.00
2023-05-16T18:43:59.985Z,46.00
2023-05-16T18:46:26.591Z,46.00
2023-05-16T18:48:57.553Z,46.00
2023-05-16T18:51:24.698Z,46.00
2023-05-16T18:53:51.374Z,46.10
2023-05-16T18:56:18.075Z,46.10
2023-05-16T18:58:44.713Z,46.00
2023-05-16T19:01:11.338Z,46.10
2023-05-16T19:03:38.204Z,46.20
2023-05-16T19:06:04.922Z,46.10
2023-05-16T19:08:46.538Z,46.20
2023-05-16T19:11:14.037Z,46.20
2023-05-16T19:13:40.675Z,46.20
2023-05-16T19:16:07.294Z,46.30
2023-05-16T19:18:35.490Z,46.20
2023-05-16T19:21:02.575Z,46.30
2023-05-16T19:23:29.333Z,46.30
2023-05-16T19:25:56.323Z,46.40
2023-05-16T19:28:24.482Z,46.40
2023-05-16T19:30:51.363Z,46.40
2023-05-16T19:33:18.090Z,46.50
2023-05-16T19:35:44.662Z,46.50
2023-05-16T19:38:11.313Z,46.50
2023-05-16T19:40:37.990Z,46.50
2023-05-16T19:43:04.582Z,46.60
2023-05-16T19:45:31.341Z,46.60
2023-05-16T19:47:58.204Z,46.70
2023-05-16T19:50:24.909Z,46.70
2023-05-16T19:52:51.578Z,46.70
2023-05-16T19:55:18.284Z,46.70
2023-05-16T19:57:44.880Z,46.70
2023-05-16T20:00:11.905Z,46.70
2023-05-16T20:02:38.652Z,46.70
2023-05-16T20:05:05.620Z,46.70
2023-05-16T20:07:32.300Z,46.70
2023-05-16T20:09:59.064Z,46.80
2023-05-16T20:12:25.831Z,46.80
2023-05-16T20:14:52.584Z,46.90
2023-05-16T20:17:19.292Z,47.00
2023-05-16T20:19:46.641Z,47.00
2023-05-16T20:22:13.382Z,47.00
2023-05-16T20:24:40.116Z,47.00
2023-05-16T20:27:06.753Z,47.10
2023-05-16T20:29:34.087Z,47.10
2023-05-16T20:32:00.920Z,47.20
2023-05-16T20:34:28.000Z,47.20
2023-05-16T20:36:54.669Z,47.20
2023-05-16T20:39:21.363Z,47.30
2023-05-16T20:41:48.136Z,47.30
2023-05-16T20:44:15.539Z,47.30
2023-05-16T20:46:43.179Z,47.40
2023-05-16T20:49:09.914Z,47.40
2023-05-16T20:51:36.687Z,47.40
2023-05-16T20:54:03.438Z,47.40
2023-05-16T20:56:30.025Z,47.40
2023-05-16T20:58:57.150Z,47.50
2023-05-16T21:01:23.763Z,47.50
2023-05-16T21:03:50.474Z,47.50
2023-05-16T21:06:17.229Z,47.50
2023-05-16T21:08:44.037Z,47.50
2023-05-16T21:11:10.648Z,47.50
2023-05-16T21:13:37.371Z,47.60
2023-05-16T21:16:04.096Z,47.50
2023-05-16T21:18:30.826Z,47.50
2023-05-16T21:20:57.543Z,47.50
2023-05-16T21:23:24.140Z,47.60
2023-05-16T21:25:50.719Z,47.60
2023-05-16T21:28:17.400Z,47.60
2023-05-16T21:30:44.017Z,47.60
2023-05-16T21:33:10.774Z,47.60
2023-05-16T21:35:37.404Z,47.60
2023-05-16T21:38:04.158Z,47.60
2023-05-16T21:40:30.767Z,47.70
2023-05-16T21:42:57.436Z,47.60
2023-05-16T21:45:24.121Z,47.70
2023-05-16T21:47:53.237Z,47.70
2023-05-16T21:50:19.977Z,47.70
2023-05-16T21:52:46.744Z,47.70
2023-05-16T21:55:13.687Z,47.70
2023-05-16T21:57:40.453Z,47.70
2023-05-16T22:00:09.652Z,47.70
2023-05-16T22:02:36.822Z,47.60
2023-05-16T22:05:04.174Z,47.70
2023-05-16T22:07:31.731Z,47.70
2023-05-16T22:09:58.833Z,47.70
2023-05-16T22:12:26.523Z,47.70
2023-05-16T22:14:53.215Z,47.60
2023-05-16T22:17:20.421Z,47.70
2023-05-16T22:19:47.083Z,47.80
2023-05-16T22:22:13.792Z,48.00
2023-05-16T22:24:40.515Z,48.20
2023-05-16T22:27:07.200Z,48.50
2023-05-16T22:29:38.142Z,48.50
2023-05-16T22:32:05.071Z,48.60
2023-05-16T22:34:31.678Z,48.40
2023-05-16T22:36:58.256Z,48.40
2023-05-16T22:39:26.636Z,48.30
2023-05-16T22:41:53.245Z,48.40
2023-05-16T22:44:19.832Z,48.30
2023-05-16T22:46:46.513Z,48.30
2023-05-16T22:49:13.434Z,48.30
2023-05-16T22:51:40.215Z,48.30
2023-05-16T22:54:06.881Z,48.30
2023-05-16T22:56:33.592Z,48.30
2023-05-16T22:59:00.509Z,48.30
2023-05-16T23:01:27.162Z,48.40
2023-05-16T23:03:53.917Z,48.40
2023-05-16T23:06:20.569Z,48.30
2023-05-16T23:08:47.170Z,48.30
2023-05-16T23:11:14.104Z,48.40
2023-05-16T23:13:40.674Z,48.40
2023-05-16T23:16:07.487Z,48.40
2023-05-16T23:18:34.400Z,48.40
2023-05-16T23:21:01.104Z,48.40
2023-05-16T23:23:27.723Z,48.40
2023-05-16T23:25:54.360Z,48.40
2023-05-16T23:28:21.823Z,48.40
2023-05-16T23:30:48.569Z,48.40
2023-05-16T23:33:15.450Z,48.40
2023-05-16T23:35:42.097Z,48.40
2023-05-16T23:38:08.714Z,48.40
2023-05-16T23:40:35.432Z,48.40
2023-05-16T23:43:02.032Z,48.40
2023-05-16T23:45:30.294Z,48.40
2023-05-16T23:47:57.123Z,48.50
2023-05-16T23:50:23.864Z,48.50
2023-05-16T23:52:50.665Z,48.50
2023-05-16T23:55:17.335Z,48.50
2023-05-16T23:57:43.913Z,48.50
